createdAt,value
2022-08-28T00:05:08.005Z,9.77
2022-08-28T00:10:22.690Z,8.80
2022-08-28T00:15:35.494Z,8.07
2022-08-28T00:20:43.919Z,9.53
2022-08-28T00:25:52.385Z,10.63
2022-08-28T00:31:01.510Z,11.13
2022-08-28T00:36:10.659Z,9.17
2022-08-28T00:41:24.728Z,9.57
2022-08-28T00:46:32.129Z,10.87
2022-08-28T00:51:43.483Z,8.77
2022-08-28T00:56:57.173Z,9.53
2022-08-28T01:02:08.303Z,8.20
2022-08-28T01:07:18.595Z,7.97
2022-08-28T01:12:30.745Z,13.23
2022-08-28T01:17:43.150Z,7.60
2022-08-28T01:22:54.362Z,8.67
2022-08-28T01:28:04.677Z,7.30
2022-08-28T01:33:14.801Z,7.60
2022-08-28T01:38:26.735Z,8.07
2022-08-28T01:43:33.534Z,8.50
2022-08-28T01:48:44.331Z,7.90
2022-08-28T01:53:58.577Z,8.40
2022-08-28T01:59:12.590Z,8.97
2022-08-28T02:04:23.099Z,8.63
2022-08-28T02:09:33.114Z,9.00
2022-08-28T02:14:43.848Z,9.07
2022-08-28T02:20:03.506Z,8.67
2022-08-28T02:25:23.129Z,8.27
2022-08-28T02:30:33.711Z,8.50
2022-08-28T02:35:42.987Z,8.93
2022-08-28T02:40:53.184Z,8.93
2022-08-28T02:46:11.334Z,8.90
2022-08-28T02:51:46.182Z,9.63
2022-08-28T02:57:04.366Z,9.63
2022-08-28T03:02:11.872Z,8.17
2022-08-28T03:13:05.901Z,8.33
2022-08-28T03:18:18.332Z,7.93
2022-08-28T03:23:26.770Z,8.40
2022-08-28T03:28:36.812Z,8.30
2022-08-28T03:33:45.040Z,8.20
2022-08-28T03:38:59.631Z,7.30
2022-08-28T03:44:10.208Z,7.70
2022-08-28T03:49:23.855Z,7.10
2022-08-28T03:54:36.472Z,7.77
2022-08-28T03:59:43.921Z,8.67
2022-08-28T04:04:56.682Z,8.47
2022-08-28T04:10:06.461Z,7.40
2022-08-28T04:15:15.555Z,7.80
2022-08-28T04:20:23.466Z,7.90
2022-08-28T04:25:37.555Z,8.20
2022-08-28T04:30:44.938Z,7.73
2022-08-28T04:35:53.737Z,7.47
2022-08-28T04:41:03.278Z,7.20
2022-08-28T04:46:14.048Z,7.60
2022-08-28T04:51:22.907Z,7.47
2022-08-28T04:56:35.761Z,7.67
2022-08-28T05:01:48.144Z,8.47
2022-08-28T05:06:56.838Z,8.70
2022-08-28T05:12:07.335Z,8.20
2022-08-28T05:17:17.066Z,8.63
2022-08-28T05:22:24.587Z,9.43
2022-08-28T05:27:33.170Z,8.43
2022-08-28T05:32:43.110Z,13.23
2022-08-28T05:37:53.602Z,9.30
2022-08-28T05:43:03.991Z,11.10
2022-08-28T05:48:12.343Z,9.33
2022-08-28T05:53:20.510Z,9.83
2022-08-28T05:58:34.992Z,10.20
2022-08-28T06:03:48.794Z,10.00
2022-08-28T06:08:59.494Z,11.47
2022-08-28T06:14:11.472Z,10.27
2022-08-28T06:19:25.922Z,9.17
2022-08-28T06:24:35.398Z,9.97
2022-08-28T06:29:51.915Z,10.27
2022-08-28T06:35:28.890Z,10.13
2022-08-28T06:41:14.020Z,9.40
2022-08-28T06:46:34.416Z,9.27
2022-08-28T06:51:46.872Z,9.87
2022-08-28T06:56:58.252Z,8.60
2022-08-28T07:02:07.480Z,7.83
2022-08-28T07:07:32.463Z,7.63
2022-08-28T07:12:27.015Z,7.90
2022-08-28T07:17:36.801Z,8.50
2022-08-28T07:22:45.632Z,8.13
2022-08-28T07:27:58.994Z,8.80
2022-08-28T07:33:12.852Z,8.10
2022-08-28T07:38:28.616Z,8.13
2022-08-28T07:43:40.098Z,8.73
2022-08-28T07:48:48.266Z,9.47
2022-08-28T07:53:57.757Z,10.37
2022-08-28T07:59:04.818Z,10.90
2022-08-28T08:04:13.837Z,11.60
2022-08-28T08:09:22.351Z,10.80
2022-08-28T08:14:29.386Z,11.27
2022-08-28T08:19:37.231Z,11.10
2022-08-28T08:24:44.155Z,9.43
2022-08-28T08:29:51.160Z,9.60
2022-08-28T08:34:58.109Z,10.30
2022-08-28T08:40:10.473Z,9.57
2022-08-28T08:45:21.722Z,9.67
2022-08-28T08:50:32.072Z,10.87
2022-08-28T08:55:42.777Z,8.60
2022-08-28T09:00:52.660Z,8.57
2022-08-28T09:06:03.031Z,8.77
2022-08-28T09:11:16.777Z,9.00
2022-08-28T09:16:26.685Z,7.97
2022-08-28T09:21:36.627Z,7.50
2022-08-28T09:26:43.723Z,7.37
2022-08-28T09:31:50.841Z,8.00
2022-08-28T09:37:00.121Z,7.40
2022-08-28T09:42:11.555Z,8.20
2022-08-28T09:47:21.635Z,8.13
2022-08-28T09:52:28.901Z,7.63
2022-08-28T09:57:35.730Z,8.20
2022-08-28T10:02:45.585Z,7.87
2022-08-28T10:07:55.722Z,8.10
2022-08-28T10:13:05.538Z,8.97
2022-08-28T10:18:15.433Z,11.83
2022-08-28T10:23:24.957Z,7.93
2022-08-28T10:28:33.888Z,7.93
2022-08-28T10:33:44.025Z,7.13
2022-08-28T10:38:53.876Z,8.77
2022-08-28T10:44:02.606Z,10.30
2022-08-28T10:49:12.427Z,8.43
2022-08-28T10:54:22.504Z,5.50
2022-08-28T10:59:32.621Z,5.33
2022-08-28T11:04:41.752Z,5.40
2022-08-28T11:09:52.037Z,5.80
2022-08-28T11:14:59.142Z,5.63
2022-08-28T11:20:08.902Z,5.07
2022-08-28T11:25:19.074Z,7.40
2022-08-28T11:30:32.004Z,4.77
2022-08-28T11:35:39.392Z,4.93
2022-08-28T11:40:45.983Z,4.23
2022-08-28T11:45:55.874Z,4.70
2022-08-28T11:51:07.083Z,4.70
2022-08-28T11:56:16.037Z,4.37
2022-08-28T12:01:27.231Z,4.57
2022-08-28T12:06:37.063Z,4.10
2022-08-28T12:11:43.257Z,4.20
2022-08-28T12:16:53.356Z,3.77
2022-08-28T12:22:03.347Z,3.53
2022-08-28T12:27:11.720Z,3.90
2022-08-28T12:32:19.721Z,4.33
2022-08-28T12:37:30.126Z,3.80
2022-08-28T12:42:40.349Z,4.10
2022-08-28T12:47:49.981Z,4.73
2022-08-28T12:53:00.269Z,5.37
2022-08-28T12:58:12.930Z,4.47
2022-08-28T13:03:19.031Z,4.40
2022-08-28T13:08:26.446Z,4.43
2022-08-28T13:13:36.422Z,4.17
2022-08-28T13:18:46.647Z,4.70
2022-08-28T13:23:56.499Z,4.40
2022-08-28T13:29:06.720Z,4.97
2022-08-28T13:34:16.559Z,4.40
2022-08-28T13:39:24.310Z,5.20
2022-08-28T13:44:32.697Z,4.67
2022-08-28T13:49:39.563Z,4.57
2022-08-28T13:54:46.907Z,4.70
2022-08-28T13:59:55.729Z,5.10
2022-08-28T14:05:02.866Z,5.17
2022-08-28T14:10:10.468Z,5.50
2022-08-28T14:15:18.371Z,5.13
2022-08-28T14:20:25.255Z,5.23
2022-08-28T14:25:38.482Z,4.80
2022-08-28T14:30:44.694Z,5.53
2022-08-28T14:35:53.238Z,5.90
2022-08-28T14:41:00.150Z,5.30
2022-08-28T14:46:11.543Z,5.23
2022-08-28T14:51:18.633Z,4.83
2022-08-28T14:56:25.799Z,5.57
2022-08-28T15:01:40.388Z,5.03
2022-08-28T15:06:45.768Z,5.07
2022-08-28T15:11:54.785Z,4.90
2022-08-28T15:17:02.529Z,4.77
2022-08-28T15:22:09.615Z,4.80
2022-08-28T15:27:16.449Z,4.77
2022-08-28T15:32:23.789Z,4.50
2022-08-28T15:37:31.561Z,4.67
2022-08-28T15:42:38.670Z,4.50
2022-08-28T15:47:45.784Z,4.47
2022-08-28T15:52:53.429Z,4.83
2022-08-28T15:58:02.040Z,4.53
2022-08-28T16:03:08.938Z,4.27
2022-08-28T16:08:16.401Z,4.93
2022-08-28T16:13:23.816Z,5.23
2022-08-28T16:18:31.018Z,4.83
2022-08-28T16:23:38.541Z,5.33
2022-08-28T16:28:45.872Z,5.00
2022-08-28T16:33:54.013Z,5.93
2022-08-28T16:39:04.065Z,4.70
2022-08-28T16:44:10.314Z,4.30
2022-08-28T16:49:17.230Z,4.83
2022-08-28T16:54:25.753Z,5.17
2022-08-28T16:59:32.640Z,4.63
2022-08-28T17:04:39.843Z,4.83
2022-08-28T17:09:47.257Z,5.40
2022-08-28T17:14:55.691Z,5.20
2022-08-28T17:20:03.145Z,5.27
2022-08-28T17:25:13.882Z,5.17
2022-08-28T17:30:20.911Z,5.80
2022-08-28T17:35:28.032Z,6.37
2022-08-28T17:40:35.248Z,5.50
2022-08-28T17:45:42.469Z,6.77
2022-08-28T17:50:49.459Z,6.53
2022-08-28T17:55:56.329Z,6.63
2022-08-28T18:01:03.775Z,6.07
2022-08-28T18:06:10.742Z,6.00
2022-08-28T18:11:19.292Z,5.93
2022-08-28T18:16:31.104Z,6.13
2022-08-28T18:21:35.618Z,5.50
2022-08-28T18:26:43.625Z,6.10
2022-08-28T18:31:50.590Z,6.30
2022-08-28T18:36:57.973Z,6.00
2022-08-28T18:42:05.241Z,6.33
2022-08-28T18:47:12.833Z,7.90
2022-08-28T18:52:20.198Z,6.10
2022-08-28T18:57:27.556Z,8.73
2022-08-28T19:02:39.402Z,6.53
2022-08-28T19:07:44.196Z,6.37
2022-08-28T19:12:51.808Z,6.17
2022-08-28T19:18:00.944Z,6.17
2022-08-28T19:23:08.299Z,6.83
2022-08-28T19:28:15.642Z,6.03
2022-08-28T19:33:23.422Z,6.50
2022-08-28T19:38:33.091Z,6.10
2022-08-28T19:43:42.858Z,6.13
2022-08-28T19:48:52.367Z,6.40
2022-08-28T19:54:01.424Z,6.20
2022-08-28T19:59:09.665Z,6.10
2022-08-28T20:04:18.259Z,6.50
2022-08-28T20:09:27.014Z,6.93
2022-08-28T20:14:34.768Z,6.03
2022-08-28T20:19:42.881Z,7.70
2022-08-28T20:24:50.274Z,6.23
2022-08-28T20:30:07.154Z,6.23
2022-08-28T20:35:12.535Z,6.30
2022-08-28T20:40:22.265Z,6.40
2022-08-28T20:45:30.092Z,7.50
2022-08-28T20:50:37.491Z,6.67
2022-08-28T20:55:44.914Z,6.70
2022-08-28T21:00:53.454Z,7.90
2022-08-28T21:06:01.783Z,6.83
2022-08-28T21:11:09.374Z,6.13
2022-08-28T21:16:16.676Z,6.40
2022-08-28T21:21:23.834Z,7.87
2022-08-28T21:26:30.906Z,6.97
2022-08-28T21:31:40.975Z,6.10
2022-08-28T21:36:50.663Z,5.73
2022-08-28T21:41:57.750Z,6.47
2022-08-28T21:47:04.726Z,6.80
2022-08-28T21:52:11.559Z,6.93
2022-08-28T21:57:18.651Z,7.17
2022-08-28T22:02:26.187Z,6.30
2022-08-28T22:07:33.181Z,7.10
2022-08-28T22:12:40.024Z,6.77
2022-08-28T22:17:46.893Z,6.93
2022-08-28T22:22:55.373Z,6.77
2022-08-28T22:34:07.481Z,7.27
2022-08-28T22:39:14.321Z,7.47
2022-08-28T22:44:21.263Z,7.00
2022-08-28T22:49:28.152Z,6.90
2022-08-28T22:54:35.052Z,7.10
2022-08-28T22:59:42.331Z,6.83
2022-08-28T23:04:52.134Z,7.60
2022-08-28T23:09:57.886Z,8.33
2022-08-28T23:15:07.890Z,7.17
2022-08-28T23:20:17.357Z,6.70
2022-08-28T23:25:25.279Z,6.80
2022-08-28T23:30:32.197Z,7.17
2022-08-28T23:35:39.192Z,6.33
2022-08-28T23:40:48.316Z,8.40
2022-08-28T23:45:56.882Z,6.93
2022-08-28T23:51:05.225Z,7.17
2022-08-28T23:56:13.723Z,7.03
